sensor_id;sensor_type;location;lat;lon;timestamp;P1;durP1;ratioP1;P2;durP2;ratioP2
21798;SDS011;24973;47.178;15.316;2023-09-30T00:01:05;357.30;;;110.23;;
21798;SDS011;24973;47.178;15.316;2023-09-30T00:03:59;361.87;;;119.37;;
21798;SDS011;24973;47.178;15.316;2023-09-30T00:06:50;351.70;;;104.83;;
21798;SDS011;24973;47.178;15.316;2023-09-30T00:09:39;352.13;;;109.73;;
21798;SDS011;24973;47.178;15.316;2023-09-30T00:12:28;353.50;;;109.00;;
21798;SDS011;24973;47.178;15.316;2023-09-30T00:15:17;352.70;;;111.17;;
21798;SDS011;24973;47.178;15.316;2023-09-30T00:18:07;359.70;;;114.40;;
21798;SDS011;24973;47.178;15.316;2023-09-30T00:20:57;351.70;;;111.47;;
21798;SDS011;24973;47.178;15.316;2023-09-30T00:23:47;353.57;;;107.13;;
21798;SDS011;24973;47.178;15.316;2023-09-30T00:26:36;357.23;;;114.70;;
21798;SDS011;24973;47.178;15.316;2023-09-30T00:29:25;353.37;;;109.03;;
21798;SDS011;24973;47.178;15.316;2023-09-30T00:32:14;357.53;;;108.50;;
21798;SDS011;24973;47.178;15.316;2023-09-30T00:35:04;362.50;;;112.90;;
21798;SDS011;24973;47.178;15.316;2023-09-30T00:37:57;354.17;;;103.90;;
21798;SDS011;24973;47.178;15.316;2023-09-30T00:40:47;352.77;;;108.60;;
21798;SDS011;24973;47.178;15.316;2023-09-30T00:43:36;351.47;;;105.00;;
21798;SDS011;24973;47.178;15.316;2023-09-30T00:46:26;349.37;;;105.53;;
21798;SDS011;24973;47.178;15.316;2023-09-30T00:49:16;348.83;;;106.00;;
21798;SDS011;24973;47.178;15.316;2023-09-30T00:52:06;350.50;;;105.47;;
21798;SDS011;24973;47.178;15.316;2023-09-30T00:54:57;337.80;;;110.13;;
21798;SDS011;24973;47.178;15.316;2023-09-30T00:57:46;326.60;;;93.97;;
21798;SDS011;24973;47.178;15.316;2023-09-30T01:00:35;332.13;;;98.77;;
21798;SDS011;24973;47.178;15.316;2023-09-30T01:03:25;323.73;;;89.00;;
21798;SDS011;24973;47.178;15.316;2023-09-30T01:06:14;336.90;;;96.00;;
21798;SDS011;24973;47.178;15.316;2023-09-30T01:09:04;341.43;;;98.77;;
21798;SDS011;24973;47.178;15.316;2023-09-30T01:11:54;331.07;;;93.13;;
21798;SDS011;24973;47.178;15.316;2023-09-30T01:14:44;330.37;;;91.73;;
21798;SDS011;24973;47.178;15.316;2023-09-30T01:17:33;325.47;;;91.40;;
21798;SDS011;24973;47.178;15.316;2023-09-30T01:20:23;321.33;;;97.03;;
21798;SDS011;24973;47.178;15.316;2023-09-30T01:23:15;338.10;;;102.40;;
21798;SDS011;24973;47.178;15.316;2023-09-30T01:26:04;334.27;;;96.30;;
21798;SDS011;24973;47.178;15.316;2023-09-30T01:28:55;325.70;;;91.10;;
21798;SDS011;24973;47.178;15.316;2023-09-30T01:31:45;327.90;;;93.03;;
21798;SDS011;24973;47.178;15.316;2023-09-30T01:34:34;325.40;;;92.20;;
21798;SDS011;24973;47.178;15.316;2023-09-30T01:37:26;328.60;;;91.20;;
21798;SDS011;24973;47.178;15.316;2023-09-30T01:40:17;335.10;;;95.23;;
21798;SDS011;24973;47.178;15.316;2023-09-30T01:43:06;336.87;;;95.27;;
21798;SDS011;24973;47.178;15.316;2023-09-30T01:45:56;328.77;;;92.03;;
21798;SDS011;24973;47.178;15.316;2023-09-30T01:48:45;323.93;;;88.90;;
21798;SDS011;24973;47.178;15.316;2023-09-30T01:51:34;320.37;;;89.33;;
21798;SDS011;24973;47.178;15.316;2023-09-30T01:54:23;318.30;;;87.07;;
21798;SDS011;24973;47.178;15.316;2023-09-30T01:57:14;328.33;;;94.57;;
21798;SDS011;24973;47.178;15.316;2023-09-30T02:00:03;329.53;;;94.33;;
21798;SDS011;24973;47.178;15.316;2023-09-30T02:02:56;323.40;;;88.00;;
21798;SDS011;24973;47.178;15.316;2023-09-30T02:05:45;319.67;;;88.03;;
21798;SDS011;24973;47.178;15.316;2023-09-30T02:08:35;320.13;;;87.67;;
21798;SDS011;24973;47.178;15.316;2023-09-30T02:11:24;316.00;;;86.23;;
21798;SDS011;24973;47.178;15.316;2023-09-30T02:14:15;327.33;;;89.53;;
21798;SDS011;24973;47.178;15.316;2023-09-30T02:17:04;326.60;;;91.73;;
21798;SDS011;24973;47.178;15.316;2023-09-30T02:19:53;321.53;;;87.87;;
21798;SDS011;24973;47.178;15.316;2023-09-30T02:22:42;322.13;;;89.87;;
21798;SDS011;24973;47.178;15.316;2023-09-30T02:25:32;314.77;;;86.03;;
21798;SDS011;24973;47.178;15.316;2023-09-30T02:28:21;312.17;;;83.57;;
21798;SDS011;24973;47.178;15.316;2023-09-30T02:31:12;328.20;;;93.70;;
21798;SDS011;24973;47.178;15.316;2023-09-30T02:34:01;330.07;;;94.80;;
21798;SDS011;24973;47.178;15.316;2023-09-30T02:36:50;319.23;;;88.27;;
21798;SDS011;24973;47.178;15.316;2023-09-30T02:39:42;317.87;;;86.70;;
21798;SDS011;24973;47.178;15.316;2023-09-30T02:42:31;317.00;;;87.97;;
21798;SDS011;24973;47.178;15.316;2023-09-30T02:45:20;316.33;;;87.80;;
21798;SDS011;24973;47.178;15.316;2023-09-30T02:48:11;325.07;;;90.63;;
21798;SDS011;24973;47.178;15.316;2023-09-30T02:51:00;317.63;;;86.50;;
21798;SDS011;24973;47.178;15.316;2023-09-30T02:53:50;309.67;;;81.60;;
21798;SDS011;24973;47.178;15.316;2023-09-30T02:56:39;321.23;;;88.10;;
21798;SDS011;24973;47.178;15.316;2023-09-30T02:59:28;314.73;;;83.87;;
21798;SDS011;24973;47.178;15.316;2023-09-30T03:02:17;319.77;;;86.63;;
21798;SDS011;24973;47.178;15.316;2023-09-30T03:05:09;322.33;;;90.17;;
21798;SDS011;24973;47.178;15.316;2023-09-30T03:08:00;314.97;;;83.93;;
21798;SDS011;24973;47.178;15.316;2023-09-30T03:10:49;311.13;;;81.97;;
21798;SDS011;24973;47.178;15.316;2023-09-30T03:13:39;309.20;;;81.80;;
21798;SDS011;24973;47.178;15.316;2023-09-30T03:16:29;309.67;;;83.07;;
21798;SDS011;24973;47.178;15.316;2023-09-30T03:19:19;311.93;;;83.47;;
21798;SDS011;24973;47.178;15.316;2023-09-30T03:22:09;319.37;;;88.40;;
21798;SDS011;24973;47.178;15.316;2023-09-30T03:24:58;311.13;;;84.57;;
21798;SDS011;24973;47.178;15.316;2023-09-30T03:27:48;311.20;;;84.80;;
21798;SDS011;24973;47.178;15.316;2023-09-30T03:30:37;310.67;;;84.07;;
21798;SDS011;24973;47.178;15.316;2023-09-30T03:33:27;312.03;;;86.57;;
21798;SDS011;24973;47.178;15.316;2023-09-30T03:36:16;316.17;;;88.77;;
21798;SDS011;24973;47.178;15.316;2023-09-30T03:39:07;326.47;;;94.73;;
21798;SDS011;24973;47.178;15.316;2023-09-30T03:42:01;311.80;;;87.03;;
21798;SDS011;24973;47.178;15.316;2023-09-30T03:44:50;317.57;;;89.23;;
21798;SDS011;24973;47.178;15.316;2023-09-30T03:47:40;310.57;;;85.67;;
21798;SDS011;24973;47.178;15.316;2023-09-30T03:50:30;318.20;;;89.83;;
21798;SDS011;24973;47.178;15.316;2023-09-30T03:53:19;305.87;;;82.30;;
21798;SDS011;24973;47.178;15.316;2023-09-30T03:56:14;313.17;;;87.90;;
21798;SDS011;24973;47.178;15.316;2023-09-30T03:59:05;326.33;;;97.33;;
21798;SDS011;24973;47.178;15.316;2023-09-30T04:01:58;309.30;;;86.27;;
21798;SDS011;24973;47.178;15.316;2023-09-30T04:04:48;308.93;;;85.73;;
21798;SDS011;24973;47.178;15.316;2023-09-30T04:07:40;306.17;;;84.67;;
21798;SDS011;24973;47.178;15.316;2023-09-30T04:10:30;310.73;;;88.27;;
21798;SDS011;24973;47.178;15.316;2023-09-30T04:13:21;311.90;;;88.90;;
21798;SDS011;24973;47.178;15.316;2023-09-30T04:16:12;316.03;;;89.40;;
21798;SDS011;24973;47.178;15.316;2023-09-30T04:19:01;321.13;;;93.53;;
21798;SDS011;24973;47.178;15.316;2023-09-30T04:21:54;321.57;;;95.37;;
21798;SDS011;24973;47.178;15.316;2023-09-30T04:24:43;325.80;;;97.70;;
21798;SDS011;24973;47.178;15.316;2023-09-30T04:27:33;313.93;;;90.33;;
21798;SDS011;24973;47.178;15.316;2023-09-30T04:30:24;314.83;;;91.93;;
21798;SDS011;24973;47.178;15.316;2023-09-30T04:33:14;318.10;;;93.43;;
21798;SDS011;24973;47.178;15.316;2023-09-30T04:36:04;321.67;;;93.63;;
21798;SDS011;24973;47.178;15.316;2023-09-30T04:38:55;314.20;;;89.47;;
21798;SDS011;24973;47.178;15.316;2023-09-30T04:41:47;314.73;;;89.87;;
21798;SDS011;24973;47.178;15.316;2023-09-30T04:44:37;312.23;;;90.23;;
21798;SDS011;24973;47.178;15.316;2023-09-30T04:47:29;314.93;;;91.87;;
21798;SDS011;24973;47.178;15.316;2023-09-30T04:50:19;317.90;;;93.17;;
21798;SDS011;24973;47.178;15.316;2023-09-30T04:53:09;319.90;;;94.40;;
21798;SDS011;24973;47.178;15.316;2023-09-30T04:55:59;313.97;;;91.20;;
21798;SDS011;24973;47.178;15.316;2023-09-30T04:58:48;313.03;;;91.37;;
21798;SDS011;24973;47.178;15.316;2023-09-30T05:01:38;305.60;;;85.40;;
21798;SDS011;24973;47.178;15.316;2023-09-30T05:04:28;312.57;;;89.43;;
21798;SDS011;24973;47.178;15.316;2023-09-30T05:07:18;321.33;;;94.27;;
21798;SDS011;24973;47.178;15.316;2023-09-30T05:10:08;325.40;;;99.23;;
21798;SDS011;24973;47.178;15.316;2023-09-30T05:13:00;321.70;;;97.93;;
21798;SDS011;24973;47.178;15.316;2023-09-30T05:15:49;314.30;;;93.93;;
21798;SDS011;24973;47.178;15.316;2023-09-30T05:18:39;316.93;;;94.20;;
21798;SDS011;24973;47.178;15.316;2023-09-30T05:21:31;321.63;;;98.00;;
21798;SDS011;24973;47.178;15.316;2023-09-30T05:24:22;334.07;;;104.23;;
21798;SDS011;24973;47.178;15.316;2023-09-30T05:27:12;324.70;;;99.80;;
21798;SDS011;24973;47.178;15.316;2023-09-30T05:30:01;326.20;;;100.23;;
21798;SDS011;24973;47.178;15.316;2023-09-30T05:32:52;318.60;;;96.17;;
21798;SDS011;24973;47.178;15.316;2023-09-30T05:35:41;320.17;;;97.90;;
21798;SDS011;24973;47.178;15.316;2023-09-30T05:38:32;321.63;;;98.47;;
21798;SDS011;24973;47.178;15.316;2023-09-30T05:41:21;318.70;;;96.57;;
21798;SDS011;24973;47.178;15.316;2023-09-30T05:44:11;330.07;;;101.80;;
21798;SDS011;24973;47.178;15.316;2023-09-30T05:47:01;314.60;;;94.67;;
21798;SDS011;24973;47.178;15.316;2023-09-30T05:49:50;315.63;;;93.33;;
21798;SDS011;24973;47.178;15.316;2023-09-30T05:52:39;315.83;;;94.30;;
21798;SDS011;24973;47.178;15.316;2023-09-30T05:55:30;313.33;;;92.67;;
21798;SDS011;24973;47.178;15.316;2023-09-30T05:58:20;313.73;;;93.70;;
21798;SDS011;24973;47.178;15.316;2023-09-30T06:01:10;327.70;;;103.00;;
21798;SDS011;24973;47.178;15.316;2023-09-30T06:04:01;325.30;;;101.27;;
21798;SDS011;24973;47.178;15.316;2023-09-30T06:06:51;315.80;;;92.33;;
21798;SDS011;24973;47.178;15.316;2023-09-30T06:09:41;318.40;;;95.60;;
21798;SDS011;24973;47.178;15.316;2023-09-30T06:12:32;322.33;;;99.33;;
21798;SDS011;24973;47.178;15.316;2023-09-30T06:15:21;325.73;;;101.97;;
21798;SDS011;24973;47.178;15.316;2023-09-30T06:18:13;325.13;;;101.87;;
21798;SDS011;24973;47.178;15.316;2023-09-30T06:21:02;322.17;;;100.40;;
21798;SDS011;24973;47.178;15.316;2023-09-30T06:23:51;319.03;;;95.53;;
21798;SDS011;24973;47.178;15.316;2023-09-30T06:26:41;323.10;;;97.23;;
21798;SDS011;24973;47.178;15.316;2023-09-30T06:29:31;313.13;;;93.50;;
21798;SDS011;24973;47.178;15.316;2023-09-30T06:32:21;309.73;;;90.77;;
21798;SDS011;24973;47.178;15.316;2023-09-30T06:35:10;334.50;;;107.80;;
21798;SDS011;24973;47.178;15.316;2023-09-30T06:38:01;347.37;;;120.23;;
21798;SDS011;24973;47.178;15.316;2023-09-30T06:40:53;344.70;;;113.83;;
21798;SDS011;24973;47.178;15.316;2023-09-30T06:43:43;348.77;;;120.70;;
21798;SDS011;24973;47.178;15.316;2023-09-30T06:46:35;355.73;;;135.23;;
21798;SDS011;24973;47.178;15.316;2023-09-30T06:49:25;346.50;;;117.80;;
21798;SDS011;24973;47.178;15.316;2023-09-30T06:52:14;355.00;;;123.93;;
21798;SDS011;24973;47.178;15.316;2023-09-30T06:55:04;345.23;;;116.33;;
21798;SDS011;24973;47.178;15.316;2023-09-30T06:57:54;352.53;;;124.67;;
21798;SDS011;24973;47.178;15.316;2023-09-30T07:00:44;355.33;;;128.87;;
21798;SDS011;24973;47.178;15.316;2023-09-30T07:03:35;352.10;;;123.27;;
21798;SDS011;24973;47.178;15.316;2023-09-30T07:06:24;358.27;;;132.07;;
21798;SDS011;24973;47.178;15.316;2023-09-30T07:09:14;372.93;;;143.57;;
21798;SDS011;24973;47.178;15.316;2023-09-30T07:12:04;370.80;;;144.50;;
21798;SDS011;24973;47.178;15.316;2023-09-30T07:14:53;354.43;;;137.20;;
21798;SDS011;24973;47.178;15.316;2023-09-30T07:17:46;356.87;;;141.43;;
21798;SDS011;24973;47.178;15.316;2023-09-30T07:20:59;361.43;;;140.00;;
21798;SDS011;24973;47.178;15.316;2023-09-30T07:24:24;359.37;;;140.23;;
21798;SDS011;24973;47.178;15.316;2023-09-30T07:27:34;362.97;;;144.70;;
21798;SDS011;24973;47.178;15.316;2023-09-30T07:30:38;356.53;;;144.17;;
21798;SDS011;24973;47.178;15.316;2023-09-30T07:33:57;369.83;;;150.07;;
21798;SDS011;24973;47.178;15.316;2023-09-30T07:37:12;370.17;;;154.43;;
21798;SDS011;24973;47.178;15.316;2023-09-30T07:40:25;356.43;;;144.40;;
21798;SDS011;24973;47.178;15.316;2023-09-30T07:43:14;366.87;;;165.23;;
21798;SDS011;24973;47.178;15.316;2023-09-30T07:46:05;361.87;;;162.40;;
21798;SDS011;24973;47.178;15.316;2023-09-30T07:48:54;358.27;;;148.73;;
21798;SDS011;24973;47.178;15.316;2023-09-30T07:51:45;361.53;;;158.93;;
21798;SDS011;24973;47.178;15.316;2023-09-30T07:54:36;365.57;;;175.83;;
21798;SDS011;24973;47.178;15.316;2023-09-30T07:57:26;358.30;;;164.67;;
21798;SDS011;24973;47.178;15.316;2023-09-30T08:00:16;368.47;;;169.27;;
21798;SDS011;24973;47.178;15.316;2023-09-30T08:03:08;365.27;;;162.53;;
21798;SDS011;24973;47.178;15.316;2023-09-30T08:05:57;355.20;;;157.47;;
21798;SDS011;24973;47.178;15.316;2023-09-30T08:09:04;361.40;;;172.37;;
21798;SDS011;24973;47.178;15.316;2023-09-30T08:12:08;360.83;;;174.23;;
21798;SDS011;24973;47.178;15.316;2023-09-30T08:15:40;395.63;;;201.50;;
21798;SDS011;24973;47.178;15.316;2023-09-30T08:18:30;363.27;;;184.30;;
21798;SDS011;24973;47.178;15.316;2023-09-30T08:21:19;378.37;;;204.90;;
21798;SDS011;24973;47.178;15.316;2023-09-30T08:24:13;404.47;;;215.90;;
21798;SDS011;24973;47.178;15.316;2023-09-30T08:27:04;375.90;;;223.20;;
21798;SDS011;24973;47.178;15.316;2023-09-30T08:29:56;375.70;;;217.27;;
21798;SDS011;24973;47.178;15.316;2023-09-30T08:32:45;369.03;;;214.80;;
21798;SDS011;24973;47.178;15.316;2023-09-30T08:35:36;377.50;;;230.37;;
21798;SDS011;24973;47.178;15.316;2023-09-30T08:38:25;373.10;;;230.77;;
21798;SDS011;24973;47.178;15.316;2023-09-30T08:41:16;382.53;;;238.20;;
21798;SDS011;24973;47.178;15.316;2023-09-30T08:44:19;378.83;;;233.30;;
21798;SDS011;24973;47.178;15.316;2023-09-30T08:47:08;370.77;;;224.10;;
21798;SDS011;24973;47.178;15.316;2023-09-30T08:49:58;373.17;;;225.00;;
21798;SDS011;24973;47.178;15.316;2023-09-30T08:52:53;370.87;;;225.13;;
21798;SDS011;24973;47.178;15.316;2023-09-30T08:55:43;366.47;;;211.10;;
21798;SDS011;24973;47.178;15.316;2023-09-30T08:58:32;385.07;;;255.40;;
21798;SDS011;24973;47.178;15.316;2023-09-30T09:01:23;379.97;;;240.70;;
21798;SDS011;24973;47.178;15.316;2023-09-30T09:04:13;389.13;;;251.63;;
21798;SDS011;24973;47.178;15.316;2023-09-30T09:07:02;382.97;;;252.63;;
21798;SDS011;24973;47.178;15.316;2023-09-30T09:10:05;377.60;;;252.53;;
21798;SDS011;24973;47.178;15.316;2023-09-30T09:12:55;371.90;;;243.23;;
21798;SDS011;24973;47.178;15.316;2023-09-30T09:15:44;367.97;;;228.63;;
21798;SDS011;24973;47.178;15.316;2023-09-30T09:18:35;373.33;;;243.43;;
21798;SDS011;24973;47.178;15.316;2023-09-30T09:21:25;383.57;;;268.90;;
21798;SDS011;24973;47.178;15.316;2023-09-30T09:26:47;387.70;;;280.37;;
21798;SDS011;24973;47.178;15.316;2023-09-30T09:29:38;385.60;;;288.43;;
21798;SDS011;24973;47.178;15.316;2023-09-30T09:32:29;389.80;;;299.53;;
21798;SDS011;24973;47.178;15.316;2023-09-30T09:35:19;389.13;;;290.23;;
21798;SDS011;24973;47.178;15.316;2023-09-30T09:38:08;394.23;;;299.70;;
21798;SDS011;24973;47.178;15.316;2023-09-30T09:40:58;383.10;;;286.87;;
21798;SDS011;24973;47.178;15.316;2023-09-30T09:43:49;383.70;;;308.33;;
21798;SDS011;24973;47.178;15.316;2023-09-30T09:46:38;396.17;;;318.03;;
21798;SDS011;24973;47.178;15.316;2023-09-30T09:49:27;410.23;;;336.40;;
21798;SDS011;24973;47.178;15.316;2023-09-30T09:52:17;398.70;;;338.37;;
21798;SDS011;24973;47.178;15.316;2023-09-30T09:55:09;405.30;;;355.37;;
21798;SDS011;24973;47.178;15.316;2023-09-30T09:58:01;398.80;;;353.60;;
21798;SDS011;24973;47.178;15.316;2023-09-30T10:00:53;419.57;;;375.10;;
21798;SDS011;24973;47.178;15.316;2023-09-30T10:03:44;419.53;;;374.67;;
21798;SDS011;24973;47.178;15.316;2023-09-30T10:06:33;440.17;;;394.50;;
21798;SDS011;24973;47.178;15.316;2023-09-30T10:09:26;435.83;;;389.13;;
21798;SDS011;24973;47.178;15.316;2023-09-30T10:12:16;427.33;;;381.73;;
21798;SDS011;24973;47.178;15.316;2023-09-30T10:18:28;421.00;;;376.17;;
21798;SDS011;24973;47.178;15.316;2023-09-30T10:21:17;452.47;;;405.77;;
21798;SDS011;24973;47.178;15.316;2023-09-30T10:27:29;481.30;;;433.53;;
21798;SDS011;24973;47.178;15.316;2023-09-30T10:30:23;486.57;;;439.33;;
21798;SDS011;24973;47.178;15.316;2023-09-30T10:33:13;478.90;;;432.07;;
21798;SDS011;24973;47.178;15.316;2023-09-30T10:36:04;495.67;;;448.43;;
21798;SDS011;24973;47.178;15.316;2023-09-30T10:38:55;523.17;;;474.60;;
21798;SDS011;24973;47.178;15.316;2023-09-30T10:41:50;518.47;;;471.17;;
21798;SDS011;24973;47.178;15.316;2023-09-30T10:44:39;545.93;;;496.97;;
21798;SDS011;24973;47.178;15.316;2023-09-30T10:47:35;561.80;;;513.17;;
21798;SDS011;24973;47.178;15.316;2023-09-30T10:53:44;562.50;;;514.03;;
21798;SDS011;24973;47.178;15.316;2023-09-30T10:56:35;572.73;;;523.77;;
21798;SDS011;24973;47.178;15.316;2023-09-30T10:59:25;582.73;;;532.17;;
21798;SDS011;24973;47.178;15.316;2023-09-30T11:02:19;582.60;;;532.47;;
21798;SDS011;24973;47.178;15.316;2023-09-30T11:05:09;583.73;;;533.87;;
21798;SDS011;24973;47.178;15.316;2023-09-30T11:08:00;567.03;;;517.80;;
21798;SDS011;24973;47.178;15.316;2023-09-30T11:10:52;565.77;;;516.83;;
21798;SDS011;24973;47.178;15.316;2023-09-30T11:13:41;562.67;;;513.87;;
21798;SDS011;24973;47.178;15.316;2023-09-30T11:16:30;571.13;;;521.57;;
21798;SDS011;24973;47.178;15.316;2023-09-30T11:19:28;546.57;;;497.97;;
21798;SDS011;24973;47.178;15.316;2023-09-30T11:22:23;543.33;;;494.30;;
21798;SDS011;24973;47.178;15.316;2023-09-30T11:25:17;548.57;;;499.03;;
21798;SDS011;24973;47.178;15.316;2023-09-30T11:28:14;552.97;;;504.30;;
21798;SDS011;24973;47.178;15.316;2023-09-30T11:31:04;555.87;;;507.37;;
21798;SDS011;24973;47.178;15.316;2023-09-30T11:33:57;554.40;;;506.33;;
21798;SDS011;24973;47.178;15.316;2023-09-30T11:36:50;561.60;;;512.47;;
21798;SDS011;24973;47.178;15.316;2023-09-30T11:39:41;559.00;;;511.10;;
21798;SDS011;24973;47.178;15.316;2023-09-30T11:42:30;546.77;;;499.30;;
21798;SDS011;24973;47.178;15.316;2023-09-30T11:45:22;548.50;;;500.13;;
21798;SDS011;24973;47.178;15.316;2023-09-30T11:48:17;543.47;;;495.37;;
21798;SDS011;24973;47.178;15.316;2023-09-30T11:51:07;562.90;;;514.20;;
21798;SDS011;24973;47.178;15.316;2023-09-30T11:53:56;558.47;;;510.77;;
21798;SDS011;24973;47.178;15.316;2023-09-30T11:56:45;557.93;;;509.53;;
21798;SDS011;24973;47.178;15.316;2023-09-30T11:59:34;548.83;;;501.60;;
21798;SDS011;24973;47.178;15.316;2023-09-30T12:02:25;549.70;;;502.10;;
21798;SDS011;24973;47.178;15.316;2023-09-30T12:05:15;536.90;;;489.17;;
21798;SDS011;24973;47.178;15.316;2023-09-30T12:08:04;552.13;;;504.03;;
21798;SDS011;24973;47.178;15.316;2023-09-30T12:10:54;586.67;;;538.07;;
21798;SDS011;24973;47.178;15.316;2023-09-30T12:13:43;581.50;;;533.17;;
21798;SDS011;24973;47.178;15.316;2023-09-30T12:16:35;600.53;;;551.87;;
21798;SDS011;24973;47.178;15.316;2023-09-30T12:19:25;602.17;;;553.10;;
21798;SDS011;24973;47.178;15.316;2023-09-30T12:22:14;577.93;;;529.63;;
21798;SDS011;24973;47.178;15.316;2023-09-30T12:25:04;578.73;;;531.07;;
21798;SDS011;24973;47.178;15.316;2023-09-30T12:27:55;587.03;;;539.97;;
21798;SDS011;24973;47.178;15.316;2023-09-30T12:30:44;568.80;;;522.30;;
21798;SDS011;24973;47.178;15.316;2023-09-30T12:33:33;559.27;;;512.97;;
21798;SDS011;24973;47.178;15.316;2023-09-30T12:36:23;570.07;;;522.83;;
21798;SDS011;24973;47.178;15.316;2023-09-30T12:39:12;619.60;;;569.63;;
21798;SDS011;24973;47.178;15.316;2023-09-30T12:42:03;625.10;;;575.87;;
21798;SDS011;24973;47.178;15.316;2023-09-30T12:44:55;652.47;;;602.33;;
21798;SDS011;24973;47.178;15.316;2023-09-30T12:47:44;664.37;;;614.13;;
21798;SDS011;24973;47.178;15.316;2023-09-30T12:50:34;652.03;;;602.27;;
21798;SDS011;24973;47.178;15.316;2023-09-30T12:53:25;612.83;;;563.80;;
21798;SDS011;24973;47.178;15.316;2023-09-30T12:56:14;583.80;;;535.70;;
21798;SDS011;24973;47.178;15.316;2023-09-30T12:59:03;584.70;;;536.83;;
21798;SDS011;24973;47.178;15.316;2023-09-30T13:01:52;597.50;;;549.93;;
21798;SDS011;24973;47.178;15.316;2023-09-30T13:04:43;614.87;;;566.40;;
21798;SDS011;24973;47.178;15.316;2023-09-30T13:07:32;594.97;;;547.70;;
21798;SDS011;24973;47.178;15.316;2023-09-30T13:10:22;610.93;;;561.73;;
21798;SDS011;24973;47.178;15.316;2023-09-30T13:13:12;602.00;;;553.33;;
21798;SDS011;24973;47.178;15.316;2023-09-30T13:16:01;606.83;;;558.43;;
21798;SDS011;24973;47.178;15.316;2023-09-30T13:18:52;594.90;;;547.03;;
21798;SDS011;24973;47.178;15.316;2023-09-30T13:21:41;574.47;;;526.73;;
21798;SDS011;24973;47.178;15.316;2023-09-30T13:24:30;558.63;;;511.83;;
21798;SDS011;24973;47.178;15.316;2023-09-30T13:27:25;572.87;;;524.47;;
21798;SDS011;24973;47.178;15.316;2023-09-30T13:30:15;551.77;;;504.47;;
21798;SDS011;24973;47.178;15.316;2023-09-30T13:33:04;571.80;;;524.07;;
21798;SDS011;24973;47.178;15.316;2023-09-30T13:35:53;576.87;;;528.07;;
21798;SDS011;24973;47.178;15.316;2023-09-30T13:38:42;580.87;;;531.20;;
21798;SDS011;24973;47.178;15.316;2023-09-30T13:41:35;561.40;;;515.13;;
21798;SDS011;24973;47.178;15.316;2023-09-30T13:44:26;586.80;;;539.43;;
21798;SDS011;24973;47.178;15.316;2023-09-30T13:47:15;607.63;;;559.40;;
21798;SDS011;24973;47.178;15.316;2023-09-30T13:50:05;574.00;;;527.03;;
21798;SDS011;24973;47.178;15.316;2023-09-30T13:52:55;587.23;;;539.63;;
21798;SDS011;24973;47.178;15.316;2023-09-30T13:55:44;571.63;;;525.03;;
21798;SDS011;24973;47.178;15.316;2023-09-30T13:58:34;542.13;;;495.63;;
21798;SDS011;24973;47.178;15.316;2023-09-30T14:01:24;550.97;;;503.67;;
21798;SDS011;24973;47.178;15.316;2023-09-30T14:04:13;527.73;;;480.67;;
21798;SDS011;24973;47.178;15.316;2023-09-30T14:07:03;504.33;;;458.37;;
21798;SDS011;24973;47.178;15.316;2023-09-30T14:09:54;484.30;;;439.70;;
21798;SDS011;24973;47.178;15.316;2023-09-30T14:12:43;467.47;;;422.93;;
21798;SDS011;24973;47.178;15.316;2023-09-30T14:15:32;392.67;;;351.20;;
21798;SDS011;24973;47.178;15.316;2023-09-30T14:18:23;493.67;;;447.20;;
21798;SDS011;24973;47.178;15.316;2023-09-30T14:21:12;497.40;;;450.80;;
21798;SDS011;24973;47.178;15.316;2023-09-30T14:24:01;456.13;;;410.97;;
21798;SDS011;24973;47.178;15.316;2023-09-30T14:26:50;453.50;;;408.33;;
21798;SDS011;24973;47.178;15.316;2023-09-30T14:29:39;459.13;;;413.47;;
21798;SDS011;24973;47.178;15.316;2023-09-30T14:32:30;465.63;;;419.67;;
21798;SDS011;24973;47.178;15.316;2023-09-30T14:35:20;480.73;;;434.57;;
21798;SDS011;24973;47.178;15.316;2023-09-30T14:38:09;446.83;;;401.33;;
21798;SDS011;24973;47.178;15.316;2023-09-30T14:40:58;353.70;;;277.43;;
21798;SDS011;24973;47.178;15.316;2023-09-30T14:43:48;345.43;;;254.83;;
21798;SDS011;24973;47.178;15.316;2023-09-30T14:46:37;349.33;;;262.83;;
21798;SDS011;24973;47.178;15.316;2023-09-30T14:49:26;372.03;;;292.10;;
21798;SDS011;24973;47.178;15.316;2023-09-30T14:52:17;386.73;;;343.67;;
21798;SDS011;24973;47.178;15.316;2023-09-30T14:55:06;373.53;;;318.60;;
21798;SDS011;24973;47.178;15.316;2023-09-30T14:57:55;371.77;;;300.93;;
21798;SDS011;24973;47.178;15.316;2023-09-30T15:00:45;474.00;;;427.07;;
21798;SDS011;24973;47.178;15.316;2023-09-30T15:03:34;476.50;;;430.17;;
21798;SDS011;24973;47.178;15.316;2023-09-30T15:06:25;496.17;;;448.30;;
21798;SDS011;24973;47.178;15.316;2023-09-30T15:09:16;502.27;;;453.77;;
21798;SDS011;24973;47.178;15.316;2023-09-30T15:12:06;498.10;;;450.87;;
21798;SDS011;24973;47.178;15.316;2023-09-30T15:14:55;481.83;;;434.23;;
21798;SDS011;24973;47.178;15.316;2023-09-30T15:17:44;501.07;;;453.10;;
21798;SDS011;24973;47.178;15.316;2023-09-30T15:20:37;472.43;;;425.33;;
21798;SDS011;24973;47.178;15.316;2023-09-30T15:23:27;471.87;;;424.60;;
21798;SDS011;24973;47.178;15.316;2023-09-30T15:26:20;451.90;;;405.37;;
21798;SDS011;24973;47.178;15.316;2023-09-30T15:29:09;472.33;;;422.87;;
21798;SDS011;24973;47.178;15.316;2023-09-30T15:31:58;437.13;;;391.23;;
21798;SDS011;24973;47.178;15.316;2023-09-30T15:34:49;440.97;;;394.23;;
21798;SDS011;24973;47.178;15.316;2023-09-30T15:37:38;422.87;;;376.80;;
21798;SDS011;24973;47.178;15.316;2023-09-30T15:40:28;428.63;;;382.27;;
21798;SDS011;24973;47.178;15.316;2023-09-30T15:43:20;406.67;;;350.93;;
21798;SDS011;24973;47.178;15.316;2023-09-30T15:46:10;401.80;;;339.63;;
21798;SDS011;24973;47.178;15.316;2023-09-30T15:49:00;395.33;;;328.70;;
21798;SDS011;24973;47.178;15.316;2023-09-30T15:51:49;405.23;;;331.57;;
21798;SDS011;24973;47.178;15.316;2023-09-30T15:54:38;401.83;;;329.00;;
21798;SDS011;24973;47.178;15.316;2023-09-30T15:57:27;405.10;;;321.23;;
21798;SDS011;24973;47.178;15.316;2023-09-30T16:00:18;411.33;;;335.40;;
21798;SDS011;24973;47.178;15.316;2023-09-30T16:03:08;407.40;;;322.23;;
21798;SDS011;24973;47.178;15.316;2023-09-30T16:05:57;389.90;;;310.77;;
21798;SDS011;24973;47.178;15.316;2023-09-30T16:08:46;396.33;;;324.03;;
21798;SDS011;24973;47.178;15.316;2023-09-30T16:11:35;389.23;;;293.73;;
21798;SDS011;24973;47.178;15.316;2023-09-30T16:14:24;400.43;;;294.97;;